Cairndow, United Kingdom
Current Conditions -  °F | °C
As of 2:20 PM on Wednesday 28 Jan 2015 (Local Time) from EGEO Reporting Station
Scattered Clouds Scattered Clouds  
Wind Chill: 29°   Ceiling: Unl
Heat Index: 41°   Visibility: 6mi
Dew Point: 30°   Wind: 35mph
Humidity: 65%   Direction: 280°W
Pressure: 29.21"   Gusts: NA
Location:  56.25°N, 4.94°W
Report Text: EGEO 281420Z 28030KT 9999 FEW016 SCT028CB 05/M01 Q0989
Loading
Personal Weather Stations






























Interactive Weather Map New forecast layout! Learn more

10-Day Weather Forecast

Advertisements
Track Severe Weather on mobile